Time;durP1;ratioP1;P1;durP2;ratioP2;P2;SDS_P1;SDS_P2;PMS_P1;PMS_P2;Temp;Humidity;BMP_temperature;BMP_pressure;BME280_temperature;BME280_humidity;BME280_pressure;Samples;Min_cycle;Max_cycle;Signal;HPM_P1;HPM_P2
2023/03/26 00:00:27;;;;;;;;;;;;;;;14.31;48.02;96595.63;4198552;28;5635;-76
2023/03/26 00:02:30;;;;;;;;;;;;;;;14.32;47.73;96599.09;4199536;28;6031;-75
2023/03/26 00:04:34;;;;;;;;;;;;;;;14.31;48.00;96586.84;4193584;28;5841;-77
2023/03/26 00:06:40;;;;;;;;;;;;;;;14.31;48.12;96581.53;4196133;28;6860;-75
2023/03/26 00:08:44;;;;;;;;;;;;;;;14.28;47.78;96594.25;4192868;28;5639;-76
2023/03/26 00:10:47;;;;;;;;;;;;;;;14.31;47.98;96589.50;4202909;28;5642;-76
2023/03/26 00:12:50;;;;;;;;;;;;;;;14.33;47.79;96590.09;4202700;28;5651;-77
2023/03/26 00:14:53;;;;;;;;;;;;;;;14.33;47.74;96598.06;4198043;28;5906;-76
2023/03/26 00:16:56;;;;;;;;;;;;;;;14.32;47.91;96605.25;4189354;28;5536;-76
2023/03/26 00:19:00;;;;;;;;;;;;;;;14.32;47.77;96604.44;4184302;28;5845;-76
2023/03/26 00:21:06;;;;;;;;;;;;;;;14.32;47.83;96602.56;4201299;28;5967;-76
2023/03/26 00:23:09;;;;;;;;;;;;;;;14.31;48.02;96594.81;4200649;28;7716;-77
2023/03/26 00:25:12;;;;;;;;;;;;;;;14.30;47.98;96587.88;4202535;28;5734;-77
2023/03/26 00:27:16;;;;;;;;;;;;;;;14.30;48.16;96582.56;4202586;28;5703;-76
2023/03/26 00:29:19;;;;;;;;;;;;;;;14.31;48.03;96577.03;4199127;28;5769;-76
2023/03/26 00:31:21;;;;;;;;;;;;;;;14.30;47.81;96582.56;4199819;28;6304;-77
2023/03/26 00:33:24;;;;;;;;;;;;;;;14.28;48.03;96585.44;4194239;28;5624;-76
2023/03/26 00:35:28;;;;;;;;;;;;;;;14.28;47.94;96604.06;4202113;28;5643;-75
2023/03/26 00:37:32;;;;;;;;;;;;;;;14.30;48.00;96611.81;4201086;28;5631;-75
2023/03/26 00:39:36;;;;;;;;;;;;;;;14.31;48.10;96624.88;4201917;28;5631;-77
2023/03/26 00:41:41;;;;;;;;;;;;;;;14.30;48.00;96627.78;4202281;28;5643;-76
2023/03/26 00:43:47;;;;;;;;;;;;;;;14.30;47.97;96609.97;4201994;28;5631;-76
2023/03/26 00:45:52;;;;;;;;;;;;;;;14.30;48.17;96596.66;4201960;28;5619;-76
2023/03/26 00:47:56;;;;;;;;;;;;;;;14.32;47.85;96589.28;4202137;28;5642;-76
2023/03/26 00:49:59;;;;;;;;;;;;;;;14.31;48.13;96592.16;4199174;28;5747;-76
2023/03/26 00:52:02;;;;;;;;;;;;;;;14.27;48.37;96591.81;4201393;28;5634;-76
2023/03/26 00:54:07;;;;;;;;;;;;;;;14.25;48.15;96601.81;4202038;28;5615;-76
2023/03/26 00:56:10;;;;;;;;;;;;;;;14.24;48.41;96586.91;4202249;28;5089;-76
2023/03/26 00:58:14;;;;;;;;;;;;;;;14.25;48.35;96583.22;4202015;28;7679;-76
2023/03/26 01:00:19;;;;;;;;;;;;;;;14.25;48.34;96586.69;4202211;28;5646;-77
2023/03/26 01:02:24;;;;;;;;;;;;;;;14.22;48.47;96594.31;4202240;28;5627;-76
2023/03/26 01:04:30;;;;;;;;;;;;;;;14.22;48.41;96596.97;4193273;28;5774;-76
2023/03/26 01:06:34;;;;;;;;;;;;;;;14.23;48.35;96580.78;4205686;28;5768;-76
2023/03/26 01:08:41;;;;;;;;;;;;;;;14.25;48.62;96570.72;4200503;28;5620;-76
2023/03/26 01:10:49;;;;;;;;;;;;;;;14.26;48.37;96574.19;4200301;28;5705;-76
2023/03/26 01:12:52;;;;;;;;;;;;;;;14.26;48.71;96563.56;4201657;28;6459;-76
2023/03/26 01:15:00;;;;;;;;;;;;;;;14.25;48.78;96564.59;4195867;28;5608;-76
2023/03/26 01:17:05;;;;;;;;;;;;;;;14.27;48.56;96550.06;4202071;28;5805;-76
2023/03/26 01:19:15;;;;;;;;;;;;;;;14.26;48.62;96540.44;4201223;28;5623;-76
2023/03/26 01:21:22;;;;;;;;;;;;;;;14.28;48.47;96542.91;4201619;28;5833;-76
2023/03/26 01:23:30;;;;;;;;;;;;;;;14.27;48.55;96533.31;4201571;28;7703;-75
2023/03/26 01:25:41;;;;;;;;;;;;;;;14.23;48.34;96521.47;4188229;28;5701;-76
2023/03/26 01:27:48;;;;;;;;;;;;;;;14.16;48.66;96492.31;4193655;28;5909;-76
2023/03/26 01:29:54;;;;;;;;;;;;;;;14.16;48.62;96486.19;4192957;28;5654;-76
2023/03/26 01:32:09;;;;;;;;;;;;;;;14.16;48.86;96496.84;4195684;28;5830;-76
2023/03/26 01:34:20;;;;;;;;;;;;;;;14.17;48.57;96495.78;4201307;28;5792;-76
2023/03/26 01:36:32;;;;;;;;;;;;;;;14.18;48.66;96500.06;4201848;28;5640;-76
2023/03/26 01:38:45;;;;;;;;;;;;;;;14.17;48.70;96495.78;4201069;28;5634;-76
2023/03/26 01:40:54;;;;;;;;;;;;;;;14.13;48.99;96495.41;4201548;28;5655;-76
2023/03/26 01:43:04;;;;;;;;;;;;;;;14.13;48.83;96494.59;4193118;28;5650;-76
2023/03/26 01:45:11;;;;;;;;;;;;;;;14.12;48.89;96488.47;4201083;28;5627;-76
2023/03/26 01:47:17;;;;;;;;;;;;;;;14.13;48.87;96486.63;4197687;28;5695;-76
2023/03/26 01:49:20;;;;;;;;;;;;;;;14.12;48.79;96488.47;4201241;28;5615;-76
2023/03/26 01:51:29;;;;;;;;;;;;;;;14.14;49.02;96485.59;4201393;28;5638;-75
2023/03/26 01:53:32;;;;;;;;;;;;;;;14.15;48.83;96476.56;4200918;28;5719;-75
2023/03/26 01:55:42;;;;;;;;;;;;;;;14.14;48.93;96465.13;4208458;28;5714;-75
2023/03/26 01:57:58;;;;;;;;;;;;;;;14.16;48.99;96456.97;4200976;28;5798;-75
2023/03/26 02:00:13;;;;;;;;;;;;;;;14.15;48.98;96450.00;4200088;28;5636;-75
2023/03/26 02:02:27;;;;;;;;;;;;;;;14.17;48.87;96451.41;4201073;28;5636;-75
2023/03/26 02:04:36;;;;;;;;;;;;;;;14.19;48.81;96445.88;4201333;28;5729;-75
2023/03/26 02:06:44;;;;;;;;;;;;;;;14.18;48.95;96444.25;4201258;28;5639;-76
2023/03/26 02:08:53;;;;;;;;;;;;;;;14.22;49.08;96450.72;4200871;28;5623;-75
2023/03/26 02:10:57;;;;;;;;;;;;;;;14.25;48.99;96445.78;4201286;28;5631;-75
2023/03/26 02:13:01;;;;;;;;;;;;;;;14.27;48.90;96445.56;4200861;28;6436;-75
2023/03/26 02:15:06;;;;;;;;;;;;;;;14.26;49.10;96442.06;4200991;28;5631;-75
2023/03/26 02:17:09;;;;;;;;;;;;;;;14.27;49.13;96446.38;4201145;28;5636;-76
2023/03/26 02:19:20;;;;;;;;;;;;;;;14.27;48.87;96435.75;4200797;28;6543;-76
2023/03/26 02:21:24;;;;;;;;;;;;;;;14.31;48.98;96438.75;4192913;28;5830;-76
2023/03/26 02:23:28;;;;;;;;;;;;;;;14.32;48.83;96445.69;4200791;28;5627;-76
2023/03/26 02:25:34;;;;;;;;;;;;;;;14.31;48.71;96446.72;4198173;28;5623;-76
2023/03/26 02:27:37;;;;;;;;;;;;;;;14.30;48.88;96439.78;4198866;28;5798;-76
2023/03/26 02:29:41;;;;;;;;;;;;;;;14.25;48.72;96423.69;4190221;28;5653;-76
2023/03/26 02:31:45;;;;;;;;;;;;;;;14.22;49.07;96424.16;4200403;28;5635;-76
2023/03/26 02:33:48;;;;;;;;;;;;;;;14.23;48.75;96409.81;4200147;28;5640;-76
2023/03/26 02:35:51;;;;;;;;;;;;;;;14.22;48.75;96409.00;4200687;28;5635;-76
2023/03/26 02:37:55;;;;;;;;;;;;;;;14.17;49.03;96400.09;4199699;28;5793;-75
2023/03/26 02:39:58;;;;;;;;;;;;;;;14.11;48.80;96395.66;4188853;28;5777;-77
2023/03/26 02:42:01;;;;;;;;;;;;;;;14.13;48.85;96399.72;4189475;28;5627;-75
2023/03/26 02:44:05;;;;;;;;;;;;;;;14.16;49.04;96390.50;4192847;28;6320;-76
2023/03/26 02:46:09;;;;;;;;;;;;;;;14.23;48.78;96383.22;4192664;28;6336;-76
2023/03/26 02:48:13;;;;;;;;;;;;;;;14.25;48.74;96386.47;4200430;28;5796;-75
2023/03/26 02:50:16;;;;;;;;;;;;;;;14.26;48.40;96382.75;4200080;28;5711;-75
2023/03/26 02:52:19;;;;;;;;;;;;;;;14.30;48.51;96381.28;4199865;28;5648;-75
2023/03/26 02:54:22;;;;;;;;;;;;;;;14.32;48.67;96379.22;4185879;28;5658;-75
2023/03/26 02:56:25;;;;;;;;;;;;;;;14.32;48.67;96373.91;4191747;28;5932;-76
2023/03/26 02:58:28;;;;;;;;;;;;;;;14.33;48.57;96374.72;4200246;28;5651;-77
2023/03/26 03:00:32;;;;;;;;;;;;;;;14.30;48.42;96378.63;4184170;28;5641;-75
2023/03/26 03:02:37;;;;;;;;;;;;;;;14.31;48.44;96358.19;4193950;28;5734;-75
2023/03/26 03:04:40;;;;;;;;;;;;;;;14.30;48.50;96352.06;4189569;28;5645;-77
2023/03/26 03:06:44;;;;;;;;;;;;;;;14.28;48.55;96338.19;4184124;28;5638;-77
2023/03/26 03:08:47;;;;;;;;;;;;;;;14.27;48.58;96342.69;4195776;28;5627;-76
2023/03/26 03:10:58;;;;;;;;;;;;;;;14.27;48.68;96336.56;4200366;28;5714;-75
2023/03/26 03:13:02;;;;;;;;;;;;;;;14.26;48.76;96334.91;4200042;28;5620;-75
2023/03/26 03:15:06;;;;;;;;;;;;;;;14.25;48.60;96333.28;4200605;28;5813;-76
2023/03/26 03:17:09;;;;;;;;;;;;;;;14.23;48.91;96320.22;4199981;28;5623;-76
2023/03/26 03:19:13;;;;;;;;;;;;;;;14.21;49.02;96324.97;4200015;28;5722;-75
2023/03/26 03:21:16;;;;;;;;;;;;;;;14.23;48.71;96324.75;4200471;28;5639;-76
2023/03/26 03:23:20;;;;;;;;;;;;;;;14.20;49.00;96320.69;4200695;28;5615;-76
2023/03/26 03:25:24;;;;;;;;;;;;;;;14.17;48.80;96299.88;4200504;28;5823;-75
2023/03/26 03:27:27;;;;;;;;;;;;;;;14.19;49.07;96297.00;4192587;28;5678;-75
2023/03/26 03:29:30;;;;;;;;;;;;;;;14.20;49.14;96299.44;4200097;28;5623;-75
2023/03/26 03:31:33;;;;;;;;;;;;;;;14.17;49.11;96299.09;4200262;28;5730;-75
2023/03/26 03:33:36;;;;;;;;;;;;;;;14.16;48.98;96292.97;4200359;28;5635;-75
2023/03/26 03:35:40;;;;;;;;;;;;;;;14.17;48.99;96288.44;4200224;28;5663;-75
2023/03/26 03:37:43;;;;;;;;;;;;;;;14.17;49.06;96296.41;4197998;28;5631;-76
2023/03/26 03:39:46;;;;;;;;;;;;;;;14.14;49.25;96299.50;4184073;28;6569;-77
2023/03/26 03:41:49;;;;;;;;;;;;;;;14.11;49.07;96289.34;4191926;28;5627;-75
2023/03/26 03:43:52;;;;;;;;;;;;;;;14.11;49.27;96278.72;4202400;28;5631;-76
2023/03/26 03:45:55;;;;;;;;;;;;;;;14.11;49.34;96289.34;4201095;28;5710;-76
2023/03/26 03:47:58;;;;;;;;;;;;;;;14.09;49.09;96280.78;4201498;28;5857;-76
2023/03/26 03:50:01;;;;;;;;;;;;;;;14.07;49.18;96274.91;4197157;28;5679;-76
2023/03/26 03:52:05;;;;;;;;;;;;;;;14.08;49.08;96269.34;4202063;28;5832;-75
2023/03/26 03:54:08;;;;;;;;;;;;;;;14.11;49.37;96265.41;4188486;28;5625;-75
2023/03/26 03:56:13;;;;;;;;;;;;;;;14.10;49.21;96272.59;4200636;28;5844;-75
2023/03/26 03:58:21;;;;;;;;;;;;;;;14.12;49.10;96259.06;4201100;28;5671;-75
2023/03/26 04:00:24;;;;;;;;;;;;;;;14.10;49.29;96272.59;4198011;28;6779;-75
2023/03/26 04:02:29;;;;;;;;;;;;;;;14.06;49.28;96260.00;4190598;28;5709;-75
2023/03/26 04:04:33;;;;;;;;;;;;;;;14.03;49.16;96255.91;4195574;28;5623;-75
2023/03/26 04:06:36;;;;;;;;;;;;;;;14.03;49.12;96255.91;4196254;28;6004;-77
2023/03/26 04:08:40;;;;;;;;;;;;;;;14.03;49.44;96255.09;4200962;28;5631;-75
2023/03/26 04:10:43;;;;;;;;;;;;;;;14.05;49.48;96253.88;4197318;28;5117;-75
2023/03/26 04:12:46;;;;;;;;;;;;;;;14.07;49.45;96250.97;4190931;28;7800;-77
2023/03/26 04:14:49;;;;;;;;;;;;;;;14.07;49.39;96250.97;4197288;28;6390;-75
2023/03/26 04:16:52;;;;;;;;;;;;;;;14.07;49.10;96251.78;4195846;28;5620;-75
2023/03/26 04:18:56;;;;;;;;;;;;;;;14.06;49.38;96249.34;4193122;28;5631;-75
2023/03/26 04:21:01;;;;;;;;;;;;;;;14.05;49.35;96247.75;4202191;28;5723;-76
2023/03/26 04:23:05;;;;;;;;;;;;;;;14.07;49.13;96243.81;4201066;28;5643;-75
2023/03/26 04:25:10;;;;;;;;;;;;;;;14.09;49.29;96241.72;4202570;28;5540;-76
2023/03/26 04:27:16;;;;;;;;;;;;;;;14.12;49.41;96235.94;4201993;28;6327;-75
2023/03/26 04:29:23;;;;;;;;;;;;;;;14.15;49.12;96237.34;4201683;28;5623;-76
2023/03/26 04:31:29;;;;;;;;;;;;;;;14.15;49.34;96235.47;4185937;28;5642;-76
2023/03/26 04:33:34;;;;;;;;;;;;;;;14.13;49.12;96240.22;4201095;28;5639;-76
2023/03/26 04:35:40;;;;;;;;;;;;;;;14.08;49.06;96237.47;4196651;28;6378;-76
2023/03/26 04:37:44;;;;;;;;;;;;;;;14.06;49.49;96242.19;4198770;28;5769;-75
2023/03/26 04:39:49;;;;;;;;;;;;;;;14.04;49.11;96232.81;4198513;28;5660;-76
2023/03/26 04:41:53;;;;;;;;;;;;;;;13.97;49.62;96236.38;4185993;28;5741;-76
2023/03/26 04:43:56;;;;;;;;;;;;;;;13.94;49.45;96236.84;4198543;28;5726;-75
2023/03/26 04:46:03;;;;;;;;;;;;;;;13.88;49.67;96227.13;4195444;28;5780;-75
2023/03/26 04:48:07;;;;;;;;;;;;;;;13.89;49.84;96212.00;4200173;28;6300;-75
2023/03/26 04:50:11;;;;;;;;;;;;;;;13.86;49.89;96212.44;4200521;28;5752;-75
2023/03/26 04:52:14;;;;;;;;;;;;;;;13.87;49.73;96228.16;4191310;28;5660;-75
2023/03/26 04:54:23;;;;;;;;;;;;;;;13.90;50.09;96233.00;4201050;28;5651;-76
2023/03/26 04:56:34;;;;;;;;;;;;;;;13.89;49.98;96241.22;4193850;28;6233;-76
2023/03/26 04:58:38;;;;;;;;;;;;;;;13.90;50.01;96238.31;4200219;28;5628;-75
2023/03/26 05:00:42;;;;;;;;;;;;;;;13.91;50.29;96237.28;4191596;28;5638;-76
2023/03/26 05:02:48;;;;;;;;;;;;;;;13.89;50.33;96230.59;4195117;28;6437;-76
2023/03/26 05:04:51;;;;;;;;;;;;;;;13.90;50.25;96219.72;4195328;28;5655;-75
2023/03/26 05:06:55;;;;;;;;;;;;;;;13.91;50.25;96228.50;4200047;28;5654;-75
2023/03/26 05:08:58;;;;;;;;;;;;;;;13.90;50.38;96230.34;4183710;28;5797;-76
2023/03/26 05:11:01;;;;;;;;;;;;;;;13.86;50.42;96234.50;4201688;28;5737;-76
2023/03/26 05:13:03;;;;;;;;;;;;;;;13.87;50.56;96240.63;4201419;28;5627;-74
2023/03/26 05:15:10;;;;;;;;;;;;;;;13.85;50.82;96248.03;4202120;28;5655;-74
2023/03/26 05:17:17;;;;;;;;;;;;;;;13.84;50.98;96243.75;4201691;28;5639;-75
2023/03/26 05:19:20;;;;;;;;;;;;;;;13.84;51.07;96239.25;4201384;28;5481;-74
2023/03/26 05:21:24;;;;;;;;;;;;;;;13.82;50.91;96236.00;4193482;28;7033;-75
2023/03/26 05:23:26;;;;;;;;;;;;;;;13.80;51.24;96227.44;4201737;28;5635;-76
2023/03/26 05:25:29;;;;;;;;;;;;;;;13.78;51.35;96221.53;4201532;28;5666;-76
2023/03/26 05:27:33;;;;;;;;;;;;;;;13.78;51.36;96207.47;4201804;28;5623;-75
2023/03/26 05:29:36;;;;;;;;;;;;;;;13.76;51.19;96196.25;4201226;28;6316;-74
2023/03/26 05:31:40;;;;;;;;;;;;;;;13.74;51.26;96185.84;4201537;28;5110;-74
2023/03/26 05:33:44;;;;;;;;;;;;;;;13.72;51.76;96179.97;4201604;28;7483;-75
2023/03/26 05:35:48;;;;;;;;;;;;;;;13.75;51.76;96173.38;4201261;28;5626;-74
2023/03/26 05:37:51;;;;;;;;;;;;;;;13.72;51.67;96179.97;4200645;28;5746;-76
2023/03/26 05:39:54;;;;;;;;;;;;;;;13.69;51.92;96185.72;4201374;28;6450;-75
2023/03/26 05:41:57;;;;;;;;;;;;;;;13.67;51.84;96201.06;4200468;28;6312;-74
2023/03/26 05:44:00;;;;;;;;;;;;;;;13.69;51.99;96191.03;4200216;28;5691;-74
2023/03/26 05:46:03;;;;;;;;;;;;;;;13.68;51.97;96176.13;4192744;28;6349;-75
2023/03/26 05:48:07;;;;;;;;;;;;;;;13.67;52.12;96177.16;4185906;28;5830;-75
2023/03/26 05:50:11;;;;;;;;;;;;;;;13.65;52.43;96182.72;4199005;28;5643;-75
2023/03/26 05:52:17;;;;;;;;;;;;;;;13.65;52.53;96179.25;4200546;28;5636;-75
2023/03/26 05:54:20;;;;;;;;;;;;;;;13.66;52.48;96186.19;4193548;28;5666;-76
2023/03/26 05:56:23;;;;;;;;;;;;;;;13.67;52.77;96193.09;4184907;28;5638;-75
2023/03/26 05:58:27;;;;;;;;;;;;;;;13.66;52.58;96196.81;4193930;28;5624;-75
2023/03/26 06:00:30;;;;;;;;;;;;;;;13.67;52.61;96195.75;4196412;28;5744;-75
2023/03/26 06:02:35;;;;;;;;;;;;;;;13.69;52.66;96193.69;4192075;28;5773;-75
2023/03/26 06:04:41;;;;;;;;;;;;;;;13.68;52.92;96206.16;4199342;28;5980;-75
2023/03/26 06:06:44;;;;;;;;;;;;;;;13.67;53.17;96220.47;4201012;28;6627;-75
2023/03/26 06:08:49;;;;;;;;;;;;;;;13.66;53.08;96205.56;4195221;28;5639;-75
2023/03/26 06:11:06;;;;;;;;;;;;;;;13.68;53.14;96221.28;4200784;28;5635;-75
2023/03/26 06:13:10;;;;;;;;;;;;;;;13.68;52.94;96218.63;4200065;28;5828;-74
2023/03/26 06:15:13;;;;;;;;;;;;;;;13.64;53.13;96225.44;4199334;28;5646;-75
2023/03/26 06:17:16;;;;;;;;;;;;;;;13.64;53.37;96236.06;4200134;28;5632;-74
2023/03/26 06:19:19;;;;;;;;;;;;;;;13.66;53.53;96236.63;4183990;28;5769;-74
2023/03/26 06:21:23;;;;;;;;;;;;;;;13.68;53.49;96242.53;4196422;28;5643;-75
2023/03/26 06:23:28;;;;;;;;;;;;;;;13.67;53.36;96243.56;4198973;28;6452;-75
2023/03/26 06:25:31;;;;;;;;;;;;;;;13.66;53.56;96224.16;4200138;28;6230;-75
2023/03/26 06:27:33;;;;;;;;;;;;;;;13.64;53.43;96225.44;4194789;28;5658;-75
2023/03/26 06:29:36;;;;;;;;;;;;;;;13.60;53.80;96218.97;4198371;28;5631;-75
2023/03/26 06:31:40;;;;;;;;;;;;;;;13.58;53.83;96202.44;4200138;28;6140;-75
2023/03/26 06:33:43;;;;;;;;;;;;;;;13.59;54.08;96212.00;4194754;28;5658;-75
2023/03/26 06:35:46;;;;;;;;;;;;;;;13.63;54.30;96218.50;4196661;28;5630;-74
2023/03/26 06:37:50;;;;;;;;;;;;;;;13.64;54.21;96217.47;4199053;28;5620;-74
2023/03/26 06:39:53;;;;;;;;;;;;;;;13.64;54.25;96220.94;4199687;28;5714;-75
2023/03/26 06:41:56;;;;;;;;;;;;;;;13.61;54.01;96207.31;4199464;28;5702;-76
2023/03/26 06:43:59;;;;;;;;;;;;;;;13.63;54.06;96210.53;4197168;28;5650;-75
2023/03/26 06:46:02;;;;;;;;;;;;;;;13.64;54.39;96204.19;4197334;28;5719;-75
2023/03/26 06:48:05;;;;;;;;;;;;;;;13.63;54.28;96195.41;4197358;28;5713;-76
2023/03/26 06:50:10;;;;;;;;;;;;;;;13.63;54.43;96192.75;4199753;28;5714;-75
2023/03/26 06:52:13;;;;;;;;;;;;;;;13.66;54.48;96183.53;4193638;28;5797;-75
2023/03/26 06:54:17;;;;;;;;;;;;;;;13.67;54.66;96183.28;4192029;28;5666;-75
2023/03/26 06:56:20;;;;;;;;;;;;;;;13.68;54.66;96192.06;4199855;28;6414;-75
2023/03/26 06:58:23;;;;;;;;;;;;;;;13.67;54.68;96185.13;4198316;28;5631;-75
2023/03/26 07:00:26;;;;;;;;;;;;;;;13.68;54.52;96181.44;4190889;28;5780;-75
2023/03/26 07:02:28;;;;;;;;;;;;;;;13.68;54.71;96182.25;4195331;28;5611;-75
2023/03/26 07:04:31;;;;;;;;;;;;;;;13.68;54.95;96195.53;4195362;28;5726;-75
2023/03/26 07:06:34;;;;;;;;;;;;;;;13.70;54.56;96200.59;4181872;28;6613;-75
2023/03/26 07:08:37;;;;;;;;;;;;;;;13.73;54.89;96186.91;4199845;28;5635;-75
2023/03/26 07:10:41;;;;;;;;;;;;;;;13.72;54.97;96195.91;4200205;28;5627;-74
2023/03/26 07:12:44;;;;;;;;;;;;;;;13.75;54.87;96192.78;4200283;28;5759;-76
2023/03/26 07:14:47;;;;;;;;;;;;;;;13.76;54.91;96185.63;4202015;28;5635;-75
2023/03/26 07:16:50;;;;;;;;;;;;;;;13.77;55.12;96187.25;4183815;28;5717;-76
2023/03/26 07:18:54;;;;;;;;;;;;;;;13.78;54.77;96186.19;4202205;28;5634;-74
2023/03/26 07:20:57;;;;;;;;;;;;;;;13.77;55.03;96182.75;4199267;28;5611;-75
2023/03/26 07:23:00;;;;;;;;;;;;;;;13.72;55.16;96179.97;4193241;28;5642;-75
2023/03/26 07:25:04;;;;;;;;;;;;;;;13.72;55.00;96173.84;4197064;28;5687;-77
2023/03/26 07:27:17;;;;;;;;;;;;;;;13.71;55.31;96162.41;4193956;28;5663;-75
2023/03/26 07:29:32;;;;;;;;;;;;;;;13.74;55.16;96158.50;4191983;28;5642;-76
2023/03/26 07:31:41;;;;;;;;;;;;;;;13.78;55.04;96155.13;4200108;28;5616;-75
2023/03/26 07:33:52;;;;;;;;;;;;;;;13.78;55.31;96159.63;4200652;28;5642;-75
2023/03/26 07:36:03;;;;;;;;;;;;;;;13.80;55.33;96157.56;4196092;28;5643;-75
2023/03/26 07:38:23;;;;;;;;;;;;;;;13.77;55.20;96150.84;4195017;28;5623;-76
2023/03/26 07:40:50;;;;;;;;;;;;;;;13.79;55.41;96158.59;4195125;28;5618;-76
2023/03/26 07:43:03;;;;;;;;;;;;;;;13.79;55.33;96155.94;4202725;28;6351;-75
2023/03/26 07:45:21;;;;;;;;;;;;;;;13.80;55.22;96153.06;4202162;28;5694;-77
2023/03/26 07:47:28;;;;;;;;;;;;;;;13.79;55.51;96162.06;4194499;28;5627;-76
2023/03/26 07:49:32;;;;;;;;;;;;;;;13.77;55.36;96181.94;4203153;28;5635;-75
2023/03/26 07:51:36;;;;;;;;;;;;;;;13.74;55.47;96191.16;4202141;28;6327;-76
2023/03/26 07:53:39;;;;;;;;;;;;;;;13.78;55.52;96200.28;4194734;28;5627;-77
2023/03/26 07:55:50;;;;;;;;;;;;;;;13.78;55.52;96210.91;4199905;28;5971;-76
2023/03/26 07:58:05;;;;;;;;;;;;;;;13.77;55.75;96211.97;4201685;28;5623;-75
2023/03/26 08:00:14;;;;;;;;;;;;;;;13.76;55.83;96218.31;4199611;28;5623;-76
2023/03/26 08:02:35;;;;;;;;;;;;;;;13.76;55.76;96207.69;4202027;28;5731;-76
2023/03/26 08:05:09;;;;;;;;;;;;;;;13.77;55.81;96197.88;4194478;28;5789;-77
2023/03/26 08:07:46;;;;;;;;;;;;;;;13.74;55.66;96153.97;4195736;28;5606;-76
2023/03/26 08:10:16;;;;;;;;;;;;;;;13.73;55.92;96136.44;4197061;28;5611;-77
2023/03/26 08:12:51;;;;;;;;;;;;;;;13.72;55.85;96126.03;4187342;28;5774;-75
2023/03/26 08:15:27;;;;;;;;;;;;;;;13.74;55.71;96151.31;4197895;28;5619;-75
2023/03/26 08:17:54;;;;;;;;;;;;;;;13.78;55.79;96179.03;4196156;28;5698;-75
2023/03/26 08:20:25;;;;;;;;;;;;;;;13.82;55.96;96179.41;4194950;28;5770;-76
2023/03/26 08:22:54;;;;;;;;;;;;;;;13.84;55.82;96188.78;4194543;28;5622;-75
2023/03/26 08:25:26;;;;;;;;;;;;;;;13.85;55.84;96163.81;4188400;28;5713;-75
2023/03/26 08:28:00;;;;;;;;;;;;;;;13.86;56.12;96138.88;4202180;28;5611;-75
2023/03/26 08:30:27;;;;;;;;;;;;;;;13.86;56.00;96160.13;4198535;28;5610;-76
2023/03/26 08:32:54;;;;;;;;;;;;;;;13.91;56.28;96175.38;4192597;28;5777;-76
2023/03/26 08:35:17;;;;;;;;;;;;;;;13.90;56.10;96201.13;4185816;28;5639;-76
2023/03/26 08:37:22;;;;;;;;;;;;;;;13.90;56.31;96201.13;4175341;28;5893;-77
2023/03/26 08:39:45;;;;;;;;;;;;;;;13.94;56.42;96185.56;4197585;28;5623;-75
2023/03/26 08:42:40;;;;;;;;;;;;;;;13.97;56.22;96183.25;4197011;28;5623;-76
2023/03/26 08:45:22;;;;;;;;;;;;;;;13.98;56.39;96176.88;4201685;28;5693;-76
2023/03/26 08:48:19;;;;;;;;;;;;;;;14.03;56.18;96188.66;4200016;28;5611;-76
2023/03/26 08:51:00;;;;;;;;;;;;;;;14.06;56.35;96185.56;4197999;28;5711;-76
2023/03/26 08:53:38;;;;;;;;;;;;;;;14.07;56.25;96181.88;4198825;28;5702;-76
2023/03/26 08:55:48;;;;;;;;;;;;;;;14.07;56.28;96181.88;4171292;28;5639;-77
2023/03/26 08:58:23;;;;;;;;;;;;;;;14.07;56.33;96179.22;4199209;28;5732;-76
2023/03/26 09:00:52;;;;;;;;;;;;;;;14.11;56.24;96172.38;4196772;28;5653;-76
2023/03/26 09:03:17;;;;;;;;;;;;;;;14.08;56.32;96181.63;4191033;28;5728;-77
2023/03/26 09:06:00;;;;;;;;;;;;;;;14.05;56.50;96179.44;4174094;28;5860;-76
2023/03/26 09:08:56;;;;;;;;;;;;;;;14.02;56.72;96177.22;4202075;28;5632;-75
2023/03/26 09:11:19;;;;;;;;;;;;;;;13.99;56.71;96181.16;4200388;28;5663;-75
2023/03/26 09:14:05;;;;;;;;;;;;;;;14.04;56.70;96171.69;4195387;28;5799;-75
2023/03/26 09:16:32;;;;;;;;;;;;;;;13.96;56.98;96170.19;4191417;28;5764;-73
2023/03/26 09:18:58;;;;;;;;;;;;;;;13.93;56.93;96160.00;4200654;28;6292;-73
2023/03/26 09:21:43;;;;;;;;;;;;;;;13.94;57.23;96167.75;4196418;28;5730;-74
2023/03/26 09:24:18;;;;;;;;;;;;;;;13.94;57.00;96162.44;4122056;28;5093;-73
2023/03/26 09:26:37;;;;;;;;;;;;;;;13.93;56.99;96171.47;4121158;28;5815;-73
2023/03/26 09:29:21;;;;;;;;;;;;;;;13.93;57.45;96165.31;4132057;28;5798;-73
2023/03/26 09:31:58;;;;;;;;;;;;;;;13.94;57.49;96161.66;4124304;28;5843;-73
2023/03/26 09:34:22;;;;;;;;;;;;;;;13.88;57.56;96160.69;4073042;28;6041;-72
2023/03/26 09:36:56;;;;;;;;;;;;;;;13.87;57.57;96153.75;4081708;28;5842;-73
2023/03/26 09:39:08;;;;;;;;;;;;;;;13.86;57.59;96154.00;4077046;28;5834;-73
2023/03/26 09:41:16;;;;;;;;;;;;;;;13.86;57.78;96149.50;4082936;28;5839;-73
2023/03/26 09:43:53;;;;;;;;;;;;;;;13.85;57.46;96142.56;4092658;28;5853;-72
2023/03/26 09:46:10;;;;;;;;;;;;;;;13.89;57.70;96129.63;4078752;28;5989;-73
2023/03/26 09:48:36;;;;;;;;;;;;;;;13.84;57.83;96125.00;4080312;29;5845;-73
2023/03/26 09:50:57;;;;;;;;;;;;;;;13.79;57.71;96119.56;4074344;29;6640;-73
2023/03/26 09:53:15;;;;;;;;;;;;;;;13.78;57.61;96114.47;4083346;29;5930;-73
2023/03/26 09:55:44;;;;;;;;;;;;;;;13.76;57.80;96125.34;4089017;28;5899;-73
2023/03/26 09:58:01;;;;;;;;;;;;;;;13.74;57.81;96110.66;4086354;28;5970;-73
2023/03/26 10:00:21;;;;;;;;;;;;;;;13.72;57.93;96112.75;4114539;28;5900;-73
2023/03/26 10:02:40;;;;;;;;;;;;;;;13.69;57.78;96138.72;4138953;28;5871;-72
2023/03/26 10:05:12;;;;;;;;;;;;;;;13.68;58.02;96141.59;4145909;28;5772;-73
2023/03/26 10:07:37;;;;;;;;;;;;;;;13.67;57.76;96145.28;4148176;28;5734;-73
2023/03/26 10:09:51;;;;;;;;;;;;;;;13.65;57.99;96140.22;4142015;28;5715;-72
2023/03/26 10:12:08;;;;;;;;;;;;;;;13.65;58.29;96150.84;4187477;28;5654;-72
2023/03/26 10:14:22;;;;;;;;;;;;;;;13.69;58.01;96145.88;4198408;28;5634;-72
2023/03/26 10:16:37;;;;;;;;;;;;;;;13.70;58.09;96150.13;4191073;28;5608;-73
2023/03/26 10:18:52;;;;;;;;;;;;;;;13.71;58.13;96138.50;4191425;28;5628;-68
2023/03/26 10:21:01;;;;;;;;;;;;;;;13.72;58.07;96141.97;4189268;28;5833;-69
2023/03/26 10:23:32;;;;;;;;;;;;;;;13.73;58.47;96149.72;4190993;28;5734;-71
2023/03/26 10:25:58;;;;;;;;;;;;;;;13.78;58.41;96147.16;4185912;28;5840;-68
2023/03/26 10:28:14;;;;;;;;;;;;;;;13.78;58.33;96147.16;4188033;28;5649;-67
2023/03/26 10:30:42;;;;;;;;;;;;;;;13.79;58.33;96158.59;4188731;28;5730;-68
2023/03/26 10:32:57;;;;;;;;;;;;;;;13.78;58.22;96171.06;4188696;28;5841;-67
2023/03/26 10:35:11;;;;;;;;;;;;;;;13.79;58.34;96177.19;4189456;28;5721;-66
2023/03/26 10:37:25;;;;;;;;;;;;;;;13.82;58.22;96187.38;4186044;28;5897;-66
2023/03/26 10:39:44;;;;;;;;;;;;;;;13.87;58.24;96167.06;4188568;28;5740;-66
2023/03/26 10:41:59;;;;;;;;;;;;;;;13.87;58.17;96172.38;4182769;28;5702;-66
2023/03/26 10:44:24;;;;;;;;;;;;;;;13.85;58.21;96171.78;4191395;28;5873;-68
2023/03/26 10:46:51;;;;;;;;;;;;;;;13.92;58.05;96172.47;4186035;28;5730;-67
2023/03/26 10:49:40;;;;;;;;;;;;;;;13.99;57.95;96167.06;4189212;28;5777;-67
2023/03/26 10:51:50;;;;;;;;;;;;;;;14.09;57.80;96171.81;4194978;28;5794;-67
2023/03/26 10:53:57;;;;;;;;;;;;;;;14.11;57.88;96175.06;4189515;28;5678;-65
2023/03/26 10:56:09;;;;;;;;;;;;;;;14.14;57.70;96171.91;4191506;28;5764;-69
2023/03/26 10:58:18;;;;;;;;;;;;;;;14.10;57.57;96165.47;4188684;28;5870;-67
2023/03/26 11:00:25;;;;;;;;;;;;;;;14.06;57.40;96170.44;4195439;28;5813;-71
2023/03/26 11:02:29;;;;;;;;;;;;;;;14.04;57.21;96161.03;4198540;28;5800;-67
2023/03/26 11:04:47;;;;;;;;;;;;;;;14.02;57.41;96153.31;4195747;28;5777;-68
2023/03/26 11:06:58;;;;;;;;;;;;;;;14.09;57.38;96137.25;4196243;28;5796;-65
2023/03/26 11:09:11;;;;;;;;;;;;;;;14.13;57.23;96143.72;4195552;28;5780;-67
2023/03/26 11:11:21;;;;;;;;;;;;;;;14.14;57.20;96135.50;4192314;28;5788;-70
2023/03/26 11:13:38;;;;;;;;;;;;;;;14.15;57.05;96146.97;4195764;28;6300;-77
2023/03/26 11:15:48;;;;;;;;;;;;;;;14.13;56.67;96144.53;4194526;28;5725;-69
2023/03/26 11:18:03;;;;;;;;;;;;;;;14.10;56.96;96145.00;4193901;28;5801;-77
2023/03/26 11:20:13;;;;;;;;;;;;;;;14.04;56.69;96156.53;4193745;28;5370;-73
2023/03/26 11:22:27;;;;;;;;;;;;;;;14.01;56.69;96156.19;4191306;28;7380;-68
2023/03/26 11:24:56;;;;;;;;;;;;;;;14.01;56.78;96164.19;4194103;28;5765;-66
2023/03/26 11:27:04;;;;;;;;;;;;;;;13.86;56.95;96149.50;4191185;28;5761;-66